Time;durP1;ratioP1;P1;durP2;ratioP2;P2;SDS_P1;SDS_P2;PMS_P1;PMS_P2;Temp;Humidity;BMP_temperature;BMP_pressure;BME280_temperature;BME280_humidity;BME280_pressure;Samples;Min_cycle;Max_cycle;Signal;HPM_P1;HPM_P2
2022/01/21 00:00:18;;;;;;;7.88;0.70;;;1.70;99.90;;;;;;4128640;28;20085;-83
2022/01/21 00:02:19;;;;;;;9.13;1.05;;;2.50;99.90;;;;;;4120365;28;20200;-83
2022/01/21 00:04:19;;;;;;;9.10;1.63;;;2.50;99.90;;;;;;4138739;28;20054;-83
2022/01/21 00:06:20;;;;;;;13.57;1.45;;;4.10;99.90;;;;;;4133135;28;20482;-83
2022/01/21 00:08:21;;;;;;;7.72;1.25;;;2.70;99.90;;;;;;4133062;28;20123;-83
2022/01/21 00:10:22;;;;;;;8.38;1.27;;;3.10;99.90;;;;;;4150685;28;20045;-83
2022/01/21 00:12:24;;;;;;;18.65;1.10;;;4.20;99.90;;;;;;4132401;28;20042;-83
2022/01/21 00:14:25;;;;;;;8.02;0.93;;;3.80;99.90;;;;;;4116670;28;20081;-83
2022/01/21 00:16:28;;;;;;;6.80;1.08;;;2.90;99.90;;;;;;4149644;28;20572;-82
2022/01/21 00:18:29;;;;;;;3.90;0.40;;;3.50;99.90;;;;;;4116387;28;20050;-82
2022/01/21 00:30:30;;;;;;;0.10;0.00;;;3.80;99.90;;;;;;4149638;28;20046;-83
2022/01/21 00:32:12;;;;;;;2.83;0.32;;;2.60;99.90;;;;;;4141074;28;20060;-82
2022/01/21 00:34:12;;;;;;;2.72;0.20;;;2.60;99.90;;;;;;4146229;28;20055;-82
2022/01/21 00:36:13;;;;;;;5.38;0.82;;;2.90;99.90;;;;;;4116311;28;20459;-82
2022/01/21 00:38:14;;;;;;;6.63;1.08;;;2.60;99.90;;;;;;4100113;28;20130;-82
2022/01/21 00:40:21;;;;;;;5.25;0.50;;;3.20;99.90;;;;;;4133113;28;20045;-82
2022/01/21 00:44:24;;;;;;;2.17;0.73;;;2.50;99.90;;;;;;4133702;28;20121;-82
2022/01/21 00:46:26;;;;;;;8.88;0.70;;;2.50;99.90;;;;;;4128000;28;20078;-82
2022/01/21 00:48:27;;;;;;;1.63;0.47;;;2.50;99.90;;;;;;4132566;28;20050;-82
2022/01/21 00:50:28;;;;;;;6.93;1.55;;;2.40;99.90;;;;;;4131916;28;20081;-82
2022/01/21 00:52:30;;;;;;;2.67;0.68;;;2.40;99.90;;;;;;4149743;28;20498;-83
2022/01/21 00:54:31;;;;;;;8.30;0.55;;;2.30;99.90;;;;;;4147607;28;20053;-82
2022/01/21 00:56:31;;;;;;;5.28;0.85;;;2.30;99.90;;;;;;4133427;28;20499;-82
2022/01/21 00:58:32;;;;;;;10.50;2.20;;;2.30;99.90;;;;;;4144429;28;20064;-82
2022/01/21 01:00:33;;;;;;;6.32;0.93;;;2.20;99.90;;;;;;4132135;28;20054;-82
2022/01/21 01:02:34;;;;;;;4.72;0.60;;;2.20;99.90;;;;;;4131923;28;20086;-82
2022/01/21 01:04:35;;;;;;;10.00;0.90;;;2.20;99.90;;;;;;4131948;28;20046;-82
2022/01/21 01:06:36;;;;;;;7.00;0.73;;;2.70;99.90;;;;;;4115818;28;20066;-82
2022/01/21 01:08:36;;;;;;;5.78;0.88;;;2.20;99.90;;;;;;4116034;28;20170;-82
2022/01/21 01:10:59;;;;;;;6.45;0.70;;;2.20;99.90;;;;;;4149301;28;20038;-82
2022/01/21 01:19:53;;;;;;;9.85;1.25;;;2.90;99.90;;;;;;4115731;28;20054;-82
2022/01/21 01:20:00;;;;;;;6.20;0.63;;;2.30;99.90;;;;;;4149375;28;20089;-82
2022/01/21 01:22:03;;;;;;;6.50;0.90;;;2.50;99.90;;;;;;4148899;28;20125;-82
2022/01/21 01:28:33;;;;;;;8.45;1.30;;;2.50;99.90;;;;;;4131424;28;20471;-82
2022/01/21 01:30:36;;;;;;;6.25;0.90;;;2.50;99.90;;;;;;4130861;28;20046;-82
2022/01/21 01:32:38;;;;;;;9.20;1.42;;;2.50;99.90;;;;;;4130530;28;20050;-82
2022/01/21 01:34:39;;;;;;;8.10;0.80;;;2.40;99.90;;;;;;4130819;28;20458;-82
2022/01/21 01:36:42;;;;;;;6.57;1.05;;;2.40;99.90;;;;;;4130935;28;20054;-81
2022/01/21 01:39:03;;;;;;;5.28;0.73;;;2.40;99.90;;;;;;4148529;28;20073;-81
2022/01/21 01:41:09;;;;;;;5.20;0.93;;;1.90;99.90;;;;;;4114412;28;20129;-82
2022/01/21 01:49:54;;;;;;;4.00;0.80;;;2.20;99.90;;;;;;4148709;28;20068;-81
2022/01/21 01:51:57;;;;;;;12.80;1.10;;;2.20;99.90;;;;;;4131393;28;20054;-81
2022/01/21 01:54:12;;;;;;;7.32;1.15;;;2.20;99.90;;;;;;4148924;28;20057;-81
2022/01/21 01:56:14;;;;;;;16.48;1.20;;;2.20;99.90;;;;;;4116254;28;20070;-81
2022/01/21 01:58:16;;;;;;;6.47;1.73;;;2.20;99.90;;;;;;4109189;28;20046;-82
2022/01/21 02:00:17;;;;;;;7.55;1.25;;;2.30;99.90;;;;;;4148794;28;20125;-81
2022/01/21 02:02:19;;;;;;;8.48;0.32;;;2.30;99.90;;;;;;4115070;28;20046;-81
2022/01/21 02:04:20;;;;;;;6.43;0.40;;;2.20;99.90;;;;;;4131219;28;20060;-81
2022/01/21 02:06:21;;;;;;;5.40;0.50;;;2.30;99.90;;;;;;4131065;28;20129;-81
2022/01/21 02:08:22;;;;;;;1.48;0.20;;;2.20;99.90;;;;;;4131008;28;20050;-81
2022/01/21 02:10:23;;;;;;;2.22;0.15;;;2.70;99.90;;;;;;4115265;28;20114;-81
2022/01/21 02:12:24;;;;;;;2.63;0.30;;;2.20;99.90;;;;;;4115231;28;20053;-81
2022/01/21 02:14:29;;;;;;;3.10;0.55;;;2.10;99.90;;;;;;4115200;28;20057;-81
2022/01/21 02:16:38;;;;;;;5.25;0.68;;;2.00;99.90;;;;;;4131157;28;20062;-81
2022/01/21 02:23:32;;;;;;;2.38;0.25;;;1.90;99.90;;;;;;4148280;28;20125;-81
2022/01/21 02:25:33;;;;;;;4.03;0.40;;;1.90;99.90;;;;;;4131178;28;20482;-81
2022/01/21 02:27:34;;;;;;;4.82;0.40;;;3.10;99.90;;;;;;4121637;28;20057;-81
2022/01/21 02:29:44;;;;;;;5.72;0.70;;;1.80;99.90;;;;;;4130932;28;20785;-81
2022/01/21 02:31:45;;;;;;;2.97;0.43;;;1.80;99.90;;;;;;4125171;28;20126;-81
2022/01/21 02:33:46;;;;;;;1.30;0.50;;;1.70;99.90;;;;;;4130663;28;20050;-81
2022/01/21 02:35:47;;;;;;;10.55;1.33;;;2.10;99.90;;;;;;4115094;28;20385;-81
2022/01/21 02:37:48;;;;;;;1.80;0.52;;;1.80;99.90;;;;;;4114762;28;20530;-81
2022/01/21 02:39:50;;;;;;;7.00;0.70;;;1.70;99.90;;;;;;4130887;28;20060;-81
2022/01/21 02:41:51;;;;;;;7.38;1.73;;;2.20;99.90;;;;;;4114640;28;20055;-81
2022/01/21 02:43:56;;;;;;;2.03;0.70;;;1.70;99.90;;;;;;4137745;28;20080;-81
2022/01/21 02:46:03;;;;;;;5.63;0.80;;;2.50;99.90;;;;;;4133570;28;20043;-81
2022/01/21 02:48:07;;;;;;;6.82;0.40;;;1.80;99.90;;;;;;4116444;28;20156;-81
2022/01/21 02:50:10;;;;;;;6.22;0.88;;;1.80;99.90;;;;;;4111989;28;20082;-81
2022/01/21 02:52:11;;;;;;;12.27;0.80;;;1.80;99.90;;;;;;4130881;28;20042;-82
2022/01/21 02:54:12;;;;;;;9.32;0.80;;;1.90;99.90;;;;;;4116308;28;20074;-82
2022/01/21 02:56:17;;;;;;;6.72;0.93;;;1.80;99.90;;;;;;4149258;28;20038;-82
2022/01/21 02:58:18;;;;;;;3.60;0.85;;;1.90;99.90;;;;;;4128839;28;20121;-82
2022/01/21 03:00:19;;;;;;;5.43;1.00;;;1.80;99.90;;;;;;4102607;29;20059;-82
2022/01/21 03:02:20;;;;;;;2.58;0.28;;;1.90;99.90;;;;;;4119130;28;20049;-81
2022/01/21 03:04:34;;;;;;;4.75;0.50;;;2.00;99.90;;;;;;4101771;28;20059;-81
2022/01/21 03:06:37;;;;;;;9.63;0.70;;;2.50;99.90;;;;;;4120524;28;20054;-81
2022/01/21 03:08:38;;;;;;;3.63;0.60;;;2.00;99.90;;;;;;4134257;28;20058;-82
2022/01/21 03:10:40;;;;;;;4.15;0.60;;;2.20;99.90;;;;;;4135613;28;20128;-81
2022/01/21 03:12:40;;;;;;;6.65;0.40;;;2.00;99.90;;;;;;4133791;28;20038;-82
2022/01/21 03:14:42;;;;;;;2.38;0.35;;;2.00;99.90;;;;;;4134044;28;20101;-82
2022/01/21 03:16:43;;;;;;;1.42;0.20;;;2.00;99.90;;;;;;4134788;28;20050;-82
2022/01/21 03:18:44;;;;;;;1.23;0.10;;;2.00;99.90;;;;;;4133646;28;20549;-82
2022/01/21 03:20:45;;;;;;;1.25;0.55;;;2.10;99.90;;;;;;4135059;28;20050;-82
2022/01/21 03:22:46;;;;;;;1.33;0.22;;;2.10;99.90;;;;;;4133652;28;20082;-81
2022/01/21 03:24:47;;;;;;;5.10;0.25;;;2.10;99.90;;;;;;4135136;28;20058;-82
2022/01/21 03:26:48;;;;;;;4.75;0.50;;;2.10;99.90;;;;;;4117696;28;20046;-82
2022/01/21 03:28:52;;;;;;;4.03;0.40;;;2.20;99.90;;;;;;4117397;28;20527;-81
2022/01/21 03:30:56;;;;;;;3.92;0.68;;;2.20;99.90;;;;;;4132995;28;20118;-82
2022/01/21 03:32:57;;;;;;;5.78;0.77;;;2.60;99.90;;;;;;4133942;28;20514;-82
2022/01/21 03:34:58;;;;;;;8.00;0.88;;;2.20;99.90;;;;;;4133384;28;20054;-82
2022/01/21 03:36:58;;;;;;;7.30;0.80;;;2.50;99.90;;;;;;4138613;28;20041;-82
2022/01/21 03:38:59;;;;;;;4.25;0.73;;;2.50;99.90;;;;;;4149724;28;20041;-82
2022/01/21 03:41:01;;;;;;;2.88;0.40;;;2.10;99.90;;;;;;4117400;28;20464;-81
2022/01/21 03:43:01;;;;;;;5.88;0.73;;;2.40;99.90;;;;;;4105301;28;20042;-81
2022/01/21 03:45:03;;;;;;;9.50;0.50;;;2.10;99.90;;;;;;4134535;28;20073;-81
2022/01/21 03:47:05;;;;;;;2.25;0.43;;;2.10;99.90;;;;;;4134507;28;20056;-81
2022/01/21 03:49:07;;;;;;;1.83;0.75;;;2.10;99.90;;;;;;4127951;28;20125;-81
2022/01/21 03:51:08;;;;;;;5.75;0.38;;;2.10;99.90;;;;;;4119676;28;20046;-81
2022/01/21 03:53:11;;;;;;;7.43;0.70;;;2.10;99.90;;;;;;4134108;28;20049;-82
2022/01/21 03:55:12;;;;;;;3.78;0.30;;;2.10;99.90;;;;;;4116886;28;20050;-82
2022/01/21 03:57:13;;;;;;;4.90;0.40;;;2.00;99.90;;;;;;4117081;28;20060;-82
2022/01/21 03:59:14;;;;;;;3.88;0.45;;;2.00;99.90;;;;;;4134496;28;20039;-81
2022/01/21 04:01:15;;;;;;;2.50;0.28;;;2.00;99.90;;;;;;4116778;28;20380;-82
2022/01/21 04:03:19;;;;;;;3.92;0.60;;;2.70;99.90;;;;;;4132995;28;20050;-82
2022/01/21 04:05:20;;;;;;;3.85;0.75;;;2.00;99.90;;;;;;4132172;28;20042;-82
2022/01/21 04:07:21;;;;;;;3.38;0.63;;;2.00;99.90;;;;;;4132977;28;20499;-81
2022/01/21 04:09:22;;;;;;;4.25;0.68;;;2.00;99.90;;;;;;4132863;28;20117;-82
2022/01/21 04:11:22;;;;;;;7.50;0.95;;;2.00;99.90;;;;;;4116877;28;20135;-81
2022/01/21 04:13:25;;;;;;;2.47;0.63;;;2.00;99.90;;;;;;4134039;28;20521;-81
2022/01/21 04:15:26;;;;;;;2.70;0.20;;;2.00;99.90;;;;;;4116069;28;20053;-82
2022/01/21 04:17:27;;;;;;;1.92;0.40;;;2.00;99.90;;;;;;4118512;28;20046;-81
2022/01/21 04:19:28;;;;;;;2.60;0.25;;;1.90;99.90;;;;;;4132850;28;20129;-81
2022/01/21 04:21:28;;;;;;;7.75;0.70;;;1.90;99.90;;;;;;4140923;28;20061;-82
2022/01/21 04:23:30;;;;;;;1.80;0.20;;;1.80;99.90;;;;;;4116838;28;20047;-82
2022/01/21 04:25:31;;;;;;;4.07;0.57;;;1.80;99.90;;;;;;4124913;28;20050;-81
2022/01/21 04:27:34;;;;;;;4.78;0.52;;;1.70;99.90;;;;;;4132686;28;20046;-82
2022/01/21 04:29:36;;;;;;;8.38;1.30;;;1.70;99.90;;;;;;4131255;28;20046;-82
2022/01/21 04:31:37;;;;;;;4.03;0.52;;;1.70;99.90;;;;;;4132571;28;20066;-81
2022/01/21 04:33:37;;;;;;;14.38;1.30;;;1.70;99.90;;;;;;4134251;28;20422;-82
2022/01/21 04:35:39;;;;;;;0.85;0.40;;;2.20;99.90;;;;;;4149736;28;20053;-82
2022/01/21 04:37:49;;;;;;;5.10;0.50;;;1.70;99.90;;;;;;4149764;28;20121;-81
2022/01/21 04:39:58;;;;;;;2.25;0.60;;;2.20;99.90;;;;;;4132624;28;20407;-81
2022/01/21 04:48:56;;;;;;;10.55;0.95;;;1.50;99.90;;;;;;4149816;28;20397;-82
2022/01/21 04:51:00;;;;;;;8.40;1.40;;;1.50;99.90;;;;;;4137275;28;20042;-82
2022/01/21 04:53:02;;;;;;;5.53;1.33;;;1.50;99.90;;;;;;4116585;28;20051;-82
2022/01/21 04:55:04;;;;;;;6.18;0.57;;;1.50;99.90;;;;;;4132360;28;20102;-82
2022/01/21 04:57:05;;;;;;;12.70;1.60;;;1.50;99.90;;;;;;4132749;28;20046;-82
2022/01/21 04:59:07;;;;;;;10.57;0.68;;;1.60;99.90;;;;;;4149875;28;20548;-82
2022/01/21 05:01:09;;;;;;;10.18;0.68;;;1.60;99.90;;;;;;4149879;28;20116;-82
2022/01/21 05:03:12;;;;;;;5.45;0.70;;;1.70;99.90;;;;;;4132127;28;20498;-82
2022/01/21 05:05:12;;;;;;;5.20;0.52;;;1.50;99.90;;;;;;4132958;28;20053;-81
2022/01/21 05:07:18;;;;;;;7.90;0.93;;;1.70;99.90;;;;;;4115345;28;20042;-82
2022/01/21 05:09:22;;;;;;;5.57;0.57;;;1.70;99.90;;;;;;4133250;28;20050;-82
2022/01/21 05:11:24;;;;;;;6.82;0.77;;;1.70;99.90;;;;;;4115974;28;20451;-82
2022/01/21 05:13:27;;;;;;;11.27;0.60;;;2.10;99.90;;;;;;4123510;28;20514;-82
2022/01/21 05:17:49;;;;;;;11.43;0.75;;;1.70;99.90;;;;;;4132250;28;20072;-82
2022/01/21 05:19:52;;;;;;;7.95;1.90;;;1.70;99.90;;;;;;4143127;28;20057;-82
2022/01/21 05:21:52;;;;;;;3.53;0.63;;;2.50;99.90;;;;;;4159205;28;20532;-82
2022/01/21 05:23:53;;;;;;;6.18;0.98;;;1.70;99.90;;;;;;4131759;28;20034;-82
2022/01/21 05:25:55;;;;;;;4.88;1.30;;;3.00;99.90;;;;;;4149355;28;20521;-82
2022/01/21 05:27:59;;;;;;;12.02;1.90;;;1.80;99.90;;;;;;4149353;28;20124;-82
2022/01/21 05:29:59;;;;;;;7.78;1.23;;;2.10;99.90;;;;;;4131983;28;20081;-81
2022/01/21 05:32:01;;;;;;;6.82;0.93;;;1.90;99.90;;;;;;4144265;28;20514;-81
2022/01/21 05:34:03;;;;;;;8.45;0.95;;;2.50;99.90;;;;;;4156849;28;20085;-81
2022/01/21 05:36:04;;;;;;;12.23;0.82;;;1.90;99.90;;;;;;4131546;28;20487;-82
2022/01/21 05:38:05;;;;;;;8.05;0.88;;;1.90;99.90;;;;;;4132211;28;20047;-82
2022/01/21 05:40:09;;;;;;;3.53;0.25;;;1.90;99.90;;;;;;4131674;28;20050;-81
2022/01/21 05:42:09;;;;;;;6.82;2.22;;;1.80;99.90;;;;;;4131816;28;20486;-82
2022/01/21 05:44:17;;;;;;;37.92;3.55;;;2.30;99.90;;;;;;4127494;28;20137;-82
2022/01/21 05:48:31;;;;;;;7.55;1.25;;;1.90;99.90;;;;;;4115572;28;20206;-82
2022/01/21 05:50:32;;;;;;;6.60;0.82;;;1.90;99.90;;;;;;4145721;28;20050;-81
2022/01/21 05:52:40;;;;;;;5.40;0.68;;;2.10;99.90;;;;;;4115511;28;20114;-82
2022/01/21 05:54:43;;;;;;;12.40;1.25;;;1.90;99.90;;;;;;4134680;28;20050;-82
2022/01/21 05:56:45;;;;;;;8.80;0.75;;;2.00;99.90;;;;;;4149152;28;20046;-82
2022/01/21 05:58:45;;;;;;;6.20;0.90;;;2.60;99.90;;;;;;4129492;28;20124;-81
2022/01/21 06:00:47;;;;;;;10.30;0.75;;;2.00;99.90;;;;;;4160255;28;20045;-82
2022/01/21 06:02:50;;;;;;;8.48;1.23;;;2.10;99.90;;;;;;4115421;28;20046;-82
2022/01/21 06:04:51;;;;;;;7.57;0.80;;;2.90;99.90;;;;;;4162510;28;20045;-81
2022/01/21 06:06:51;;;;;;;8.80;0.85;;;2.10;99.90;;;;;;4158533;28;20057;-82
2022/01/21 06:08:52;;;;;;;8.95;1.02;;;2.10;99.90;;;;;;4121143;28;20050;-82
2022/01/21 06:10:53;;;;;;;3.03;0.82;;;2.10;99.90;;;;;;4131286;28;20065;-82
2022/01/21 06:12:54;;;;;;;4.25;0.45;;;2.10;99.90;;;;;;4131378;28;20050;-82
2022/01/21 06:14:54;;;;;;;12.18;0.85;;;2.20;99.90;;;;;;4148663;28;20080;-82
2022/01/21 06:16:55;;;;;;;2.35;0.60;;;2.10;99.90;;;;;;4130559;28;20054;-82
2022/01/21 06:18:56;;;;;;;3.50;0.45;;;2.50;99.90;;;;;;4114399;28;20046;-82
2022/01/21 06:20:57;;;;;;;3.30;0.57;;;2.10;99.90;;;;;;4114632;28;20215;-82
2022/01/21 06:22:58;;;;;;;6.65;1.48;;;3.30;99.90;;;;;;4114715;28;20051;-82
2022/01/21 06:24:59;;;;;;;8.20;1.40;;;2.00;99.90;;;;;;4130789;28;20081;-82
2022/01/21 06:27:02;;;;;;;6.25;1.15;;;2.10;99.90;;;;;;4130789;28;20046;-82
2022/01/21 06:29:03;;;;;;;1.73;0.55;;;2.00;99.90;;;;;;4115517;28;20554;-82
2022/01/21 06:31:04;;;;;;;9.82;0.70;;;2.00;99.90;;;;;;4140349;28;20168;-81
2022/01/21 06:33:06;;;;;;;3.75;0.50;;;2.10;99.90;;;;;;4134208;28;20050;-82
2022/01/21 06:35:09;;;;;;;8.45;1.13;;;2.00;99.90;;;;;;4133867;28;20050;-82
2022/01/21 06:37:11;;;;;;;6.25;0.50;;;2.10;99.90;;;;;;4121904;28;20145;-82
2022/01/21 06:39:12;;;;;;;12.77;1.67;;;2.00;99.90;;;;;;4125491;28;20054;-82
2022/01/21 06:41:12;;;;;;;4.20;0.77;;;2.00;99.90;;;;;;4133958;28;20050;-82
2022/01/21 06:43:15;;;;;;;4.18;0.85;;;2.00;99.90;;;;;;4127671;28;20479;-81
2022/01/21 06:45:17;;;;;;;5.28;1.20;;;2.00;99.90;;;;;;4134352;28;20053;-82
2022/01/21 06:47:18;;;;;;;4.57;0.60;;;2.00;99.90;;;;;;4118165;28;20066;-82
2022/01/21 06:49:19;;;;;;;5.57;0.47;;;2.00;99.90;;;;;;4133487;28;20043;-82
2022/01/21 06:51:20;;;;;;;9.90;0.70;;;2.00;99.90;;;;;;4151770;28;20065;-82
2022/01/21 06:53:21;;;;;;;4.47;1.25;;;2.00;99.90;;;;;;4134194;28;20503;-82
2022/01/21 06:55:22;;;;;;;4.85;0.95;;;2.00;99.90;;;;;;4133833;28;20069;-83
2022/01/21 06:57:22;;;;;;;10.52;0.95;;;2.00;99.90;;;;;;4133910;28;20050;-82
2022/01/21 06:59:23;;;;;;;7.88;0.80;;;2.00;99.90;;;;;;4133957;28;20439;-81
2022/01/21 07:01:24;;;;;;;4.47;0.85;;;2.00;99.90;;;;;;4151226;28;20128;-83
2022/01/21 07:03:26;;;;;;;7.78;0.63;;;2.00;99.90;;;;;;4134189;28;20482;-82
2022/01/21 07:05:29;;;;;;;4.45;1.15;;;2.70;99.90;;;;;;4107098;28;20424;-81
2022/01/21 07:07:31;;;;;;;6.40;1.10;;;2.90;99.90;;;;;;4130574;28;20064;-81
2022/01/21 07:09:37;;;;;;;6.93;0.88;;;1.90;99.90;;;;;;4132595;28;20081;-81
2022/01/21 07:11:38;;;;;;;6.65;0.50;;;1.90;99.90;;;;;;4119581;28;20057;-81
2022/01/21 07:13:41;;;;;;;3.45;1.02;;;1.90;99.90;;;;;;4160951;28;20041;-81
2022/01/21 07:15:42;;;;;;;3.05;0.73;;;1.80;99.90;;;;;;4138931;28;20438;-81
2022/01/21 07:17:43;;;;;;;11.73;0.80;;;1.80;99.90;;;;;;4133494;28;20137;-81
2022/01/21 07:19:45;;;;;;;13.13;1.08;;;1.80;99.90;;;;;;4130668;28;20108;-81
2022/01/21 07:21:46;;;;;;;9.00;0.88;;;1.90;99.90;;;;;;4129567;28;20070;-81
2022/01/21 07:23:47;;;;;;;7.18;1.13;;;2.40;99.90;;;;;;4120174;28;20133;-81
2022/01/21 07:25:47;;;;;;;4.22;0.63;;;2.00;99.90;;;;;;4149541;28;20042;-81
2022/01/21 07:27:49;;;;;;;8.88;1.17;;;2.00;99.90;;;;;;4149552;28;20493;-81
2022/01/21 07:29:51;;;;;;;10.25;0.80;;;1.90;99.90;;;;;;4147387;28;20146;-81
2022/01/21 07:31:54;;;;;;;11.20;1.13;;;2.00;99.90;;;;;;4149566;28;20050;-81
2022/01/21 07:33:55;;;;;;;6.45;1.20;;;2.50;99.90;;;;;;4132050;28;20050;-82
2022/01/21 07:35:57;;;;;;;9.02;0.80;;;2.00;99.90;;;;;;4130850;28;20077;-82
2022/01/21 07:37:59;;;;;;;11.40;1.75;;;2.00;99.90;;;;;;4133142;28;20113;-82
2022/01/21 07:40:01;;;;;;;7.68;0.90;;;2.00;99.90;;;;;;4116354;28;20078;-82
2022/01/21 07:42:03;;;;;;;3.35;0.80;;;2.10;99.90;;;;;;4149850;28;20483;-82
2022/01/21 07:44:04;;;;;;;7.95;1.20;;;2.00;99.90;;;;;;4142848;28;20057;-81
2022/01/21 07:46:04;;;;;;;7.65;0.90;;;2.10;99.90;;;;;;4146878;28;20078;-81
2022/01/21 07:48:08;;;;;;;10.60;1.33;;;2.00;99.90;;;;;;4151360;28;20077;-81
2022/01/21 07:50:09;;;;;;;5.13;1.20;;;2.50;99.90;;;;;;4150572;28;20057;-82
2022/01/21 07:52:10;;;;;;;6.72;1.42;;;2.70;99.90;;;;;;4150742;28;20038;-81
2022/01/21 07:54:12;;;;;;;12.77;0.95;;;2.10;99.90;;;;;;4109052;28;20043;-81
2022/01/21 07:56:13;;;;;;;7.65;1.45;;;2.10;99.90;;;;;;4131385;28;20834;-82
2022/01/21 07:58:14;;;;;;;3.67;1.70;;;2.70;99.90;;;;;;4150616;28;20049;-82
2022/01/21 08:00:15;;;;;;;9.55;2.20;;;2.10;99.90;;;;;;4134064;28;20069;-82
2022/01/21 08:02:16;;;;;;;18.58;1.60;;;2.10;99.90;;;;;;4123859;28;20047;-80
2022/01/21 08:04:17;;;;;;;9.63;1.98;;;2.10;99.90;;;;;;4145629;28;20050;-82
2022/01/21 08:06:17;;;;;;;5.70;1.08;;;2.20;99.90;;;;;;4117971;28;20063;-81
2022/01/21 08:08:18;;;;;;;9.38;1.10;;;2.30;99.90;;;;;;4135244;28;20042;-81
2022/01/21 08:10:19;;;;;;;9.05;1.75;;;2.30;99.90;;;;;;4148017;28;20046;-81
2022/01/21 08:12:20;;;;;;;7.47;1.30;;;2.80;99.90;;;;;;4134134;28;20081;-81
2022/01/21 08:14:22;;;;;;;7.25;1.15;;;2.40;99.90;;;;;;4151623;28;20042;-81
2022/01/21 08:16:23;;;;;;;3.53;0.93;;;3.00;99.90;;;;;;4145815;28;20065;-81
2022/01/21 08:18:25;;;;;;;8.15;1.15;;;2.40;99.90;;;;;;4158832;28;20068;-82
2022/01/21 08:20:26;;;;;;;10.60;1.02;;;2.40;99.90;;;;;;4118414;28;20046;-81
2022/01/21 08:22:27;;;;;;;10.82;1.20;;;2.30;99.90;;;;;;4118558;28;20180;-82
2022/01/21 08:24:28;;;;;;;7.93;1.08;;;2.30;99.90;;;;;;4117954;28;20424;-81
2022/01/21 08:26:29;;;;;;;11.05;1.10;;;2.40;99.90;;;;;;4117848;28;20141;-83
2022/01/21 08:28:30;;;;;;;9.57;1.20;;;2.40;99.90;;;;;;4146708;28;20479;-81
2022/01/21 08:30:31;;;;;;;7.35;1.40;;;2.50;99.90;;;;;;4133608;28;20038;-82
2022/01/21 08:32:33;;;;;;;8.43;0.90;;;2.50;99.90;;;;;;4139286;28;20511;-82
2022/01/21 08:34:34;;;;;;;5.68;0.93;;;2.60;99.90;;;;;;4148052;28;20092;-82
2022/01/21 08:36:35;;;;;;;15.15;1.25;;;2.60;99.90;;;;;;4130602;28;20065;-83
2022/01/21 08:38:45;;;;;;;8.65;2.03;;;2.70;99.90;;;;;;4133469;28;20046;-83
2022/01/21 08:40:47;;;;;;;15.07;1.40;;;2.70;99.90;;;;;;4133550;28;20117;-82
2022/01/21 08:42:51;;;;;;;14.27;1.42;;;2.80;99.90;;;;;;4150459;28;20864;-84
2022/01/21 08:44:53;;;;;;;6.32;1.38;;;2.80;99.90;;;;;;4118991;28;20046;-82
2022/01/21 08:46:56;;;;;;;8.05;1.13;;;2.90;99.90;;;;;;4118552;28;20055;-83
2022/01/21 08:48:56;;;;;;;8.70;1.00;;;4.00;99.90;;;;;;4120808;28;20053;-82
2022/01/21 08:50:59;;;;;;;13.70;1.38;;;3.10;99.90;;;;;;4150185;28;20041;-82
2022/01/21 08:53:36;;;;;;;5.32;1.10;;;3.20;99.90;;;;;;4134453;28;20519;-82
2022/01/21 08:55:30;;;;;;;17.67;1.75;;;3.20;99.90;;;;;;4157158;28;20058;-82
2022/01/21 08:57:32;;;;;;;7.40;1.27;;;3.30;99.90;;;;;;4144606;28;20046;-83
2022/01/21 08:59:34;;;;;;;19.55;2.50;;;3.30;99.90;;;;;;4150701;28;20053;-84
2022/01/21 09:01:36;;;;;;;6.65;1.10;;;3.20;99.90;;;;;;4122502;28;20102;-83
2022/01/21 09:03:39;;;;;;;5.97;1.38;;;3.20;99.90;;;;;;4121653;28;20086;-83
2022/01/21 09:05:40;;;;;;;7.20;2.33;;;3.20;99.90;;;;;;4132587;28;20054;-82
2022/01/21 09:07:43;;;;;;;9.85;1.00;;;3.90;99.90;;;;;;4117586;28;20423;-82
2022/01/21 09:09:44;;;;;;;13.93;1.27;;;3.20;99.90;;;;;;4141809;28;20046;-82
2022/01/21 09:11:45;;;;;;;12.15;1.70;;;3.80;99.90;;;;;;4138044;28;20051;-83
2022/01/21 09:13:46;;;;;;;10.18;1.42;;;;;;;;;;4142485;28;20065;-83
2022/01/21 09:15:47;;;;;;;17.75;2.30;;;;;;;;;;4142838;28;20545;-83
2022/01/21 09:17:49;;;;;;;10.05;1.50;;;;;;;;;;4164816;28;20069;-82
2022/01/21 09:19:49;;;;;;;8.88;1.33;;;3.70;99.90;;;;;;4134443;28;20101;-82
2022/01/21 09:21:54;;;;;;;16.92;2.00;;;3.40;99.90;;;;;;4136270;28;20042;-82
2022/01/21 09:23:55;;;;;;;14.27;1.42;;;3.40;99.90;;;;;;4153740;28;20067;-82
2022/01/21 09:25:56;;;;;;;9.43;1.20;;;4.10;99.90;;;;;;4150681;28;20121;-82
2022/01/21 09:27:58;;;;;;;12.68;1.98;;;3.50;99.90;;;;;;4119666;28;20074;-82
2022/01/21 09:29:59;;;;;;;16.95;1.20;;;4.90;99.90;;;;;;4134173;28;20049;-83
2022/01/21 09:32:04;;;;;;;12.32;1.70;;;4.20;99.90;;;;;;4151055;28;20398;-83
2022/01/21 09:34:06;;;;;;;7.80;1.05;;;3.60;99.90;;;;;;4133502;28;20446;-83
2022/01/21 09:36:08;;;;;;;10.05;1.15;;;3.80;99.90;;;;;;4134684;28;20237;-83
2022/01/21 09:38:09;;;;;;;9.90;1.83;;;3.60;99.90;;;;;;4134591;28;20106;-82
2022/01/21 09:40:10;;;;;;;9.13;1.75;;;3.60;99.90;;;;;;4133142;28;20053;-83
2022/01/21 09:42:14;;;;;;;4.05;1.00;;;3.60;99.90;;;;;;4133927;28;20042;-83
2022/01/21 09:44:17;;;;;;;8.57;1.45;;;3.70;99.90;;;;;;4132559;28;20058;-81
2022/01/21 09:46:25;;;;;;;9.30;1.33;;;4.20;99.90;;;;;;4132167;28;20510;-82
2022/01/21 09:48:30;;;;;;;13.30;2.28;;;3.70;99.90;;;;;;4133725;28;20076;-82
2022/01/21 09:50:32;;;;;;;17.80;2.72;;;3.80;99.90;;;;;;4116724;28;20082;-84
2022/01/21 09:52:33;;;;;;;7.22;0.93;;;3.80;99.90;;;;;;4129951;28;20101;-81
2022/01/21 09:54:37;;;;;;;11.75;1.95;;;3.80;99.90;;;;;;4116075;28;20130;-83
2022/01/21 09:56:39;;;;;;;15.90;1.33;;;3.80;99.90;;;;;;4115353;28;20606;-82
2022/01/21 09:58:42;;;;;;;7.07;1.70;;;4.80;99.90;;;;;;4132493;28;20499;-83
2022/01/21 10:00:43;;;;;;;23.27;2.50;;;4.90;99.90;;;;;;4116236;28;20070;-83
2022/01/21 10:02:45;;;;;;;17.48;1.55;;;3.90;99.90;;;;;;4131595;28;20050;-84
2022/01/21 10:04:51;;;;;;;8.15;0.90;;;4.00;99.90;;;;;;4115292;28;20057;-82
2022/01/21 10:06:54;;;;;;;5.03;0.93;;;4.10;99.90;;;;;;4131195;28;20045;-84
2022/01/21 10:08:56;;;;;;;10.60;1.02;;;4.10;99.90;;;;;;4132514;28;20046;-82
2022/01/21 10:10:57;;;;;;;8.30;2.13;;;4.20;99.90;;;;;;4135552;28;20042;-81
2022/01/21 10:13:02;;;;;;;10.30;1.27;;;4.20;99.90;;;;;;4123556;28;20495;-84
2022/01/21 10:15:04;;;;;;;6.57;1.20;;;4.30;99.90;;;;;;4132492;28;20128;-84
2022/01/21 10:17:06;;;;;;;16.25;2.20;;;4.40;99.90;;;;;;4152048;28;20053;-82
2022/01/21 10:19:15;;;;;;;14.23;1.48;;;4.50;99.90;;;;;;4122639;28;20051;-82
2022/01/21 10:21:16;;;;;;;19.42;2.63;;;4.80;99.90;;;;;;4120688;28;20047;-83
2022/01/21 10:23:19;;;;;;;12.35;1.48;;;5.00;99.90;;;;;;4149380;28;20045;-82
2022/01/21 10:25:20;;;;;;;10.13;0.75;;;5.10;99.90;;;;;;4148539;28;20116;-81
2022/01/21 10:27:30;;;;;;;8.85;2.83;;;5.20;99.90;;;;;;4143218;28;20451;-81
2022/01/21 10:29:38;;;;;;;10.50;1.50;;;5.90;99.90;;;;;;4134847;28;20050;-82
2022/01/21 10:31:58;;;;;;;8.70;0.90;;;5.80;99.90;;;;;;4128000;28;20092;-83
2022/01/21 10:34:04;;;;;;;9.55;1.10;;;6.10;99.90;;;;;;4123440;28;20054;-83
2022/01/21 10:36:15;;;;;;;10.38;1.20;;;6.10;99.90;;;;;;4131699;28;20038;-83
2022/01/21 10:38:23;;;;;;;12.38;2.08;;;6.10;99.90;;;;;;4132442;28;20053;-82
2022/01/21 10:40:34;;;;;;;13.52;1.45;;;6.00;99.90;;;;;;4131120;28;20125;-83
2022/01/21 10:42:36;;;;;;;14.60;1.27;;;6.00;99.90;;;;;;4133268;28;20938;-83
2022/01/21 10:44:46;;;;;;;7.35;1.42;;;6.00;99.90;;;;;;4131110;28;20086;-84
2022/01/21 10:47:04;;;;;;;5.30;0.80;;;6.00;99.90;;;;;;4115121;28;20488;-82
2022/01/21 10:49:07;;;;;;;8.50;1.58;;;6.00;99.90;;;;;;4130830;28;20491;-82
2022/01/21 10:51:25;;;;;;;7.93;0.93;;;6.20;99.90;;;;;;4131438;28;20100;-85
2022/01/21 10:53:29;;;;;;;4.13;0.50;;;6.10;99.90;;;;;;4122772;28;20081;-83
2022/01/21 10:55:38;;;;;;;6.88;1.30;;;6.20;99.90;;;;;;4125496;28;20117;-81
2022/01/21 10:57:39;;;;;;;9.90;1.42;;;6.30;99.90;;;;;;4132884;28;20533;-81
2022/01/21 10:59:58;;;;;;;9.25;1.92;;;7.00;99.90;;;;;;4132820;28;20047;-82
2022/01/21 11:01:59;;;;;;;9.75;1.50;;;6.40;99.90;;;;;;4146715;28;20530;-82
2022/01/21 11:04:10;;;;;;;9.05;1.00;;;6.50;99.90;;;;;;4135892;28;20183;-82
2022/01/21 11:06:20;;;;;;;15.27;1.10;;;7.10;99.90;;;;;;4116106;28;20047;-83
2022/01/21 11:08:28;;;;;;;7.78;0.90;;;7.20;99.90;;;;;;4118929;28;20543;-82
2022/01/21 11:10:31;;;;;;;7.25;0.57;;;6.50;99.90;;;;;;4131420;28;20121;-82
2022/01/21 11:12:33;;;;;;;8.70;0.93;;;6.70;99.90;;;;;;4132755;28;20124;-82
2022/01/21 11:14:35;;;;;;;4.32;1.05;;;7.00;99.90;;;;;;4131952;28;20137;-82
2022/01/21 11:16:36;;;;;;;11.63;1.38;;;7.50;99.90;;;;;;4134240;28;20506;-82
2022/01/21 11:19:14;;;;;;;10.95;1.38;;;7.80;99.90;;;;;;4118319;28;20097;-82
2022/01/21 11:21:15;;;;;;;5.00;0.60;;;7.30;99.90;;;;;;4079644;28;20055;-83
2022/01/21 11:23:17;;;;;;;7.40;0.98;;;7.30;99.90;;;;;;4133877;28;20383;-83
2022/01/21 11:25:18;;;;;;;12.68;0.93;;;7.30;99.90;;;;;;4132201;28;20055;-82
2022/01/21 11:27:20;;;;;;;5.75;0.68;;;7.30;99.90;;;;;;4119568;28;20548;-83
2022/01/21 11:29:21;;;;;;;7.15;1.05;;;7.20;99.90;;;;;;4131387;28;20146;-83